createdAt,value
2022-09-26T00:01:28.492Z,100383.00
2022-09-26T00:03:58.726Z,100386.50
2022-09-26T00:06:29.018Z,100386.50
2022-09-26T00:08:57.385Z,100374.97
2022-09-26T00:11:27.805Z,100364.25
2022-09-26T00:13:57.672Z,100358.16
2022-09-26T00:16:26.134Z,100360.72
2022-09-26T00:18:55.794Z,100363.22
2022-09-26T00:21:25.120Z,100351.63
2022-09-26T00:23:55.176Z,100354.06
2022-09-26T00:26:25.272Z,100343.47
2022-09-26T00:28:54.059Z,100338.09
2022-09-26T00:31:26.061Z,100327.50
2022-09-26T00:33:53.963Z,100337.16
2022-09-26T00:36:26.855Z,100325.66
2022-09-26T00:39:07.229Z,100317.72
2022-09-26T00:41:34.977Z,100320.47
2022-09-26T00:44:02.933Z,100309.06
2022-09-26T00:46:37.400Z,100301.16
2022-09-26T00:49:15.389Z,100299.47
2022-09-26T00:51:49.330Z,100308.31
2022-09-26T00:54:20.545Z,100297.69
2022-09-26T00:56:51.488Z,100294.13
2022-09-26T00:59:26.133Z,100294.03
2022-09-26T01:01:55.725Z,100292.09
2022-09-26T01:04:25.990Z,100284.88
2022-09-26T01:06:54.764Z,100287.50
2022-09-26T01:09:24.117Z,100278.56
2022-09-26T01:11:53.561Z,100277.84
2022-09-26T01:14:22.275Z,100274.19
2022-09-26T01:16:53.425Z,100270.66
2022-09-26T01:19:27.076Z,100271.41
2022-09-26T01:22:16.053Z,100274.00
2022-09-26T01:24:57.145Z,100266.84
2022-09-26T01:27:42.323Z,100262.53
2022-09-26T01:30:16.274Z,100262.56
2022-09-26T01:33:17.441Z,100251.97
2022-09-26T01:36:12.060Z,100251.97
2022-09-26T01:38:52.459Z,100247.59
2022-09-26T01:41:42.902Z,100257.41
2022-09-26T01:44:23.857Z,100244.47
2022-09-26T01:46:57.685Z,100250.00
2022-09-26T01:49:29.484Z,100245.53
2022-09-26T01:52:04.324Z,100240.13
2022-09-26T01:54:38.167Z,100232.13
2022-09-26T01:57:14.384Z,100233.94
2022-09-26T01:59:47.190Z,100232.13
2022-09-26T02:02:26.122Z,100227.63
2022-09-26T02:04:58.385Z,100231.97
2022-09-26T02:07:35.163Z,100226.72
2022-09-26T02:10:06.475Z,100214.31
2022-09-26T02:12:37.117Z,100206.31
2022-09-26T02:15:11.133Z,100204.53
2022-09-26T02:17:44.957Z,100213.31
2022-09-26T02:20:17.841Z,100198.31
2022-09-26T02:22:46.810Z,100196.44
2022-09-26T02:25:16.587Z,100200.88
2022-09-26T02:27:44.376Z,100188.63
2022-09-26T02:30:13.446Z,100177.19
2022-09-26T02:32:43.041Z,100184.34
2022-09-26T02:35:30.540Z,100184.41
2022-09-26T02:37:59.259Z,100181.88
2022-09-26T02:40:35.328Z,100179.13
2022-09-26T02:43:27.761Z,100175.56
2022-09-26T02:46:07.391Z,100164.94
2022-09-26T02:48:49.261Z,100163.22
2022-09-26T02:51:36.303Z,100163.22
2022-09-26T02:54:16.837Z,100160.63
2022-09-26T02:57:00.445Z,100144.63
2022-09-26T02:59:35.011Z,100149.03
2022-09-26T03:02:12.988Z,100141.94
2022-09-26T03:04:50.530Z,100136.63
2022-09-26T03:07:25.238Z,100135.69
2022-09-26T03:09:55.451Z,100126.03
2022-09-26T03:12:27.807Z,100130.53
2022-09-26T03:14:58.788Z,100125.13
2022-09-26T03:17:28.186Z,100123.44
2022-09-26T03:20:02.603Z,100121.69
2022-09-26T03:22:31.913Z,100113.78
2022-09-26T03:25:01.210Z,100100.47
2022-09-26T03:27:32.001Z,100102.97
2022-09-26T03:30:00.657Z,100099.28
2022-09-26T03:32:29.579Z,100096.66
2022-09-26T03:34:58.930Z,100105.50
2022-09-26T03:37:26.777Z,100101.16
2022-09-26T03:39:55.703Z,100097.56
2022-09-26T03:42:34.000Z,100092.19
2022-09-26T03:45:02.479Z,100086.81
2022-09-26T03:47:30.624Z,100083.28
2022-09-26T03:50:00.058Z,100085.94
2022-09-26T03:52:28.305Z,100074.53
2022-09-26T03:54:56.145Z,100082.47
2022-09-26T03:57:24.163Z,100066.50
2022-09-26T03:59:57.994Z,100065.75
2022-09-26T04:02:32.537Z,100065.56
2022-09-26T04:05:16.311Z,100058.41
2022-09-26T04:07:44.837Z,100052.34
2022-09-26T04:10:13.177Z,100045.31
2022-09-26T04:12:41.763Z,100047.91
2022-09-26T04:15:11.258Z,100038.91
2022-09-26T04:17:40.043Z,100039.75
2022-09-26T04:20:09.622Z,100033.63
2022-09-26T04:22:40.855Z,100030.91
2022-09-26T04:25:10.141Z,100033.50
2022-09-26T04:27:39.008Z,100031.69
2022-09-26T04:30:07.864Z,100023.91
2022-09-26T04:32:39.038Z,100020.31
2022-09-26T04:35:29.786Z,100019.34
2022-09-26T04:37:58.998Z,100011.31
2022-09-26T04:40:27.970Z,100007.00
2022-09-26T04:43:03.996Z,100006.91
2022-09-26T04:45:31.904Z,100003.44
2022-09-26T04:48:00.003Z,100005.06
2022-09-26T04:50:28.844Z,100009.50
2022-09-26T04:53:09.117Z,99996.13
2022-09-26T04:55:55.407Z,100000.34
2022-09-26T04:58:23.312Z,99994.19
2022-09-26T05:00:52.511Z,99986.22
2022-09-26T05:03:37.807Z,99985.56
2022-09-26T05:06:08.905Z,99973.88
2022-09-26T05:08:38.936Z,99979.00
2022-09-26T05:11:07.399Z,99967.81
2022-09-26T05:13:36.222Z,99963.38
2022-09-26T05:16:05.537Z,99958.16
2022-09-26T05:18:33.753Z,99959.22
2022-09-26T05:21:03.272Z,99952.00
2022-09-26T05:23:48.587Z,99952.00
2022-09-26T05:26:23.644Z,99952.00
2022-09-26T05:28:54.027Z,99951.22
2022-09-26T05:31:29.030Z,99951.91
2022-09-26T05:33:57.513Z,99950.19
2022-09-26T05:36:28.183Z,99950.06
2022-09-26T05:38:55.987Z,99949.31
2022-09-26T05:41:28.155Z,99941.94
2022-09-26T05:43:56.425Z,99947.75
2022-09-26T05:46:25.797Z,99952.28
2022-09-26T05:48:53.984Z,99939.94
2022-09-26T05:51:24.420Z,99935.19
2022-09-26T05:53:52.994Z,99940.09
2022-09-26T05:56:25.229Z,99936.34
2022-09-26T05:59:16.048Z,99939.56
2022-09-26T06:02:06.395Z,99945.63
2022-09-26T06:05:00.226Z,99939.09
2022-09-26T06:07:41.534Z,99929.75
2022-09-26T06:10:14.077Z,99922.19
2022-09-26T06:12:52.867Z,99923.56
2022-09-26T06:15:20.973Z,99924.50
2022-09-26T06:17:49.201Z,99920.84
2022-09-26T06:20:17.404Z,99913.75
2022-09-26T06:22:45.232Z,99910.84
2022-09-26T06:25:14.274Z,99917.19
2022-09-26T06:27:42.473Z,99911.34
2022-09-26T06:30:12.892Z,99911.22
2022-09-26T06:32:41.876Z,99903.75
2022-09-26T06:35:28.075Z,99896.66
2022-09-26T06:38:05.771Z,99896.28
2022-09-26T06:40:33.776Z,99900.41
2022-09-26T06:43:02.014Z,99879.94
2022-09-26T06:45:51.179Z,99886.88
2022-09-26T06:48:25.293Z,99874.75
2022-09-26T06:51:08.058Z,99875.03
2022-09-26T06:53:36.484Z,99875.34
2022-09-26T06:56:06.584Z,99861.13
2022-09-26T06:58:34.540Z,99870.28
2022-09-26T07:01:08.806Z,99867.06
2022-09-26T07:03:45.702Z,99867.06
2022-09-26T07:06:49.434Z,99859.28
2022-09-26T07:09:17.741Z,99870.31
2022-09-26T07:12:13.966Z,99862.47
2022-09-26T07:14:43.388Z,99862.03
2022-09-26T07:17:22.433Z,99858.47
2022-09-26T07:20:25.361Z,99862.41
2022-09-26T07:23:16.798Z,99857.00
2022-09-26T07:25:46.329Z,99846.09
2022-09-26T07:28:14.967Z,99850.97
2022-09-26T07:30:46.835Z,99853.03
2022-09-26T07:33:27.721Z,99851.22
2022-09-26T07:36:01.879Z,99840.78
2022-09-26T07:38:32.473Z,99837.59
2022-09-26T07:41:01.165Z,99837.25
2022-09-26T07:44:04.517Z,99831.16
2022-09-26T07:46:37.896Z,99828.47
2022-09-26T07:49:25.079Z,99826.50
2022-09-26T07:52:11.526Z,99825.19
2022-09-26T07:55:17.144Z,99820.72
2022-09-26T07:57:52.704Z,99823.13
2022-09-26T08:00:30.396Z,99819.25
2022-09-26T08:03:13.901Z,99821.59
2022-09-26T08:05:44.705Z,99813.44
2022-09-26T08:08:13.103Z,99820.00
2022-09-26T08:11:03.665Z,99815.56
2022-09-26T08:13:51.083Z,99812.19
2022-09-26T08:16:47.871Z,99812.13
2022-09-26T08:19:17.444Z,99805.06
2022-09-26T08:21:47.410Z,99812.63
2022-09-26T08:24:15.374Z,99798.63
2022-09-26T08:27:14.094Z,99799.84
2022-09-26T08:29:48.497Z,99793.22
2022-09-26T08:32:17.419Z,99800.47
2022-09-26T08:34:46.588Z,99799.34
2022-09-26T08:37:34.161Z,99791.94
2022-09-26T08:40:27.931Z,99786.22
2022-09-26T08:43:36.474Z,99784.97
2022-09-26T08:46:45.022Z,99790.03
2022-09-26T08:49:42.948Z,99786.84
2022-09-26T08:52:29.453Z,99781.25
2022-09-26T08:55:03.514Z,99778.69
2022-09-26T08:57:39.653Z,99773.09
2022-09-26T09:00:20.689Z,99759.94
2022-09-26T09:03:12.272Z,99763.09
2022-09-26T09:05:45.349Z,99765.81
2022-09-26T09:08:16.347Z,99760.66
2022-09-26T09:11:10.528Z,99760.44
2022-09-26T09:13:56.835Z,99760.38
2022-09-26T09:16:57.754Z,99747.97
2022-09-26T09:19:53.816Z,99746.47
2022-09-26T09:22:46.592Z,99753.25
2022-09-26T09:25:24.417Z,99754.78
2022-09-26T09:28:09.570Z,99736.50
2022-09-26T09:30:44.671Z,99739.97
2022-09-26T09:33:51.786Z,99734.03
2022-09-26T09:36:56.993Z,99737.22
2022-09-26T09:39:42.293Z,99738.47
2022-09-26T09:42:24.961Z,99729.03
2022-09-26T09:44:59.310Z,99732.69
2022-09-26T09:47:29.057Z,99728.50
2022-09-26T09:49:59.661Z,99722.97
2022-09-26T09:52:56.182Z,99721.09
2022-09-26T09:55:38.892Z,99720.41
2022-09-26T09:58:27.448Z,99709.47
2022-09-26T10:01:06.455Z,99711.75
2022-09-26T10:03:40.216Z,99707.13
2022-09-26T10:06:46.456Z,99710.31
2022-09-26T10:08:57.952Z,99698.97
2022-09-26T10:12:12.764Z,99696.03
2022-09-26T10:15:20.600Z,99690.84
2022-09-26T10:18:25.225Z,99681.13
2022-09-26T10:21:13.305Z,99689.72
2022-09-26T10:23:45.347Z,99683.22
2022-09-26T10:26:34.426Z,99689.16
2022-09-26T10:29:07.610Z,99678.78
2022-09-26T10:31:42.277Z,99671.19
2022-09-26T10:34:27.881Z,99681.13
2022-09-26T10:36:56.821Z,99676.56
2022-09-26T10:39:48.834Z,99679.50
2022-09-26T10:42:19.955Z,99676.34
2022-09-26T10:44:50.828Z,99673.88
2022-09-26T10:47:24.904Z,99672.47
2022-09-26T10:50:18.066Z,99672.69
2022-09-26T10:53:08.889Z,99676.03
2022-09-26T10:55:42.980Z,99669.41
2022-09-26T10:58:19.015Z,99669.00
2022-09-26T11:00:50.544Z,99672.28
2022-09-26T11:03:27.023Z,99668.34
2022-09-26T11:06:26.486Z,99667.03
2022-09-26T11:09:03.287Z,99661.22
2022-09-26T11:11:52.338Z,99661.09
2022-09-26T11:14:29.100Z,99651.91
2022-09-26T11:17:11.518Z,99646.41
2022-09-26T11:19:54.525Z,99641.31
2022-09-26T11:22:35.458Z,99622.28
2022-09-26T11:27:58.962Z,99615.50
2022-09-26T11:30:48.253Z,99618.91
2022-09-26T11:33:22.551Z,99608.56
2022-09-26T11:36:02.687Z,99613.66
2022-09-26T11:41:38.539Z,99604.09
2022-09-26T11:44:35.534Z,99608.97
2022-09-26T11:47:50.149Z,99613.91
2022-09-26T11:50:46.224Z,99598.44
2022-09-26T11:53:36.013Z,99595.59
2022-09-26T11:56:29.999Z,99592.16
2022-09-26T11:59:11.111Z,99597.28
2022-09-26T12:01:46.884Z,99591.38
2022-09-26T12:04:42.771Z,99594.41
2022-09-26T12:07:20.111Z,99599.38
2022-09-26T12:10:14.605Z,99590.31
2022-09-26T12:12:53.601Z,99592.09
2022-09-26T12:15:27.894Z,99583.59
2022-09-26T12:18:08.203Z,99586.91
2022-09-26T12:20:42.504Z,99579.28
2022-09-26T12:23:19.660Z,99580.97
2022-09-26T12:25:58.662Z,99579.53
2022-09-26T12:28:45.949Z,99576.84
2022-09-26T12:31:20.767Z,99569.44
2022-09-26T12:34:19.709Z,99558.34
2022-09-26T12:37:04.156Z,99554.03
2022-09-26T12:39:50.327Z,99556.41
2022-09-26T12:42:34.248Z,99552.91
2022-09-26T12:45:28.861Z,99544.53
2022-09-26T12:48:12.726Z,99546.94
2022-09-26T12:50:54.509Z,99535.78
2022-09-26T12:53:35.680Z,99526.63
2022-09-26T12:56:08.020Z,99532.50
2022-09-26T12:58:51.597Z,99526.63
2022-09-26T13:01:43.480Z,99522.22
2022-09-26T13:04:53.822Z,99513.84
2022-09-26T13:07:34.039Z,99512.53
2022-09-26T13:10:16.330Z,99506.22
2022-09-26T13:13:08.274Z,99503.00
2022-09-26T13:15:43.800Z,99497.66
2022-09-26T13:18:34.610Z,99493.06
2022-09-26T13:21:10.018Z,99495.38
2022-09-26T13:23:42.060Z,99500.44
2022-09-26T13:26:15.238Z,99493.06
2022-09-26T13:29:06.359Z,99487.75
2022-09-26T13:31:40.698Z,99477.44
2022-09-26T13:34:17.510Z,99477.66
2022-09-26T13:36:46.593Z,99475.34
2022-09-26T13:39:20.309Z,99478.19
2022-09-26T13:41:55.089Z,99481.81
2022-09-26T13:44:38.353Z,99474.94
2022-09-26T13:47:15.947Z,99467.03
2022-09-26T13:49:58.363Z,99468.91
2022-09-26T13:52:42.676Z,99469.75
2022-09-26T13:55:19.656Z,99467.44
2022-09-26T13:58:03.661Z,99462.09
2022-09-26T14:00:53.595Z,99455.13
2022-09-26T14:03:39.962Z,99461.50
2022-09-26T14:06:29.170Z,99452.38
2022-09-26T14:09:25.159Z,99453.47
2022-09-26T14:12:22.514Z,99455.44
2022-09-26T14:15:17.039Z,99446.41
2022-09-26T14:18:15.586Z,99447.56
2022-09-26T14:21:08.143Z,99437.22
2022-09-26T14:23:39.012Z,99430.25
2022-09-26T14:26:10.260Z,99429.31
2022-09-26T14:28:41.027Z,99423.38
2022-09-26T14:31:34.605Z,99416.78
2022-09-26T14:34:16.707Z,99418.13
2022-09-26T14:36:46.603Z,99416.59
2022-09-26T14:39:41.811Z,99407.16
2022-09-26T14:42:15.517Z,99405.00
2022-09-26T14:44:54.071Z,99393.38
2022-09-26T14:47:22.552Z,99400.59
2022-09-26T14:50:02.961Z,99394.81
2022-09-26T14:52:31.650Z,99387.78
2022-09-26T14:55:02.055Z,99394.31
2022-09-26T14:57:32.937Z,99385.91
2022-09-26T15:00:03.437Z,99381.84
2022-09-26T15:02:40.192Z,99388.38
2022-09-26T15:05:19.274Z,99370.34
2022-09-26T15:07:49.589Z,99368.81
2022-09-26T15:10:38.322Z,99361.91
2022-09-26T15:13:19.572Z,99357.56
2022-09-26T15:15:56.447Z,99344.34
2022-09-26T15:18:35.638Z,99337.78
2022-09-26T15:21:13.108Z,99340.81
2022-09-26T15:23:49.810Z,99340.63
2022-09-26T15:26:21.654Z,99340.00
2022-09-26T15:28:51.675Z,99335.63
2022-09-26T15:31:23.683Z,99325.63
2022-09-26T15:33:55.795Z,99326.59
2022-09-26T15:36:23.704Z,99319.44
2022-09-26T15:38:51.560Z,99323.72
2022-09-26T15:41:40.286Z,99315.63
2022-09-26T15:44:08.757Z,99308.88
2022-09-26T15:46:38.019Z,99310.09
2022-09-26T15:49:15.015Z,99314.59
2022-09-26T15:51:45.327Z,99303.97
2022-09-26T15:54:21.710Z,99293.38
2022-09-26T15:56:51.614Z,99288.91
2022-09-26T15:59:25.549Z,99289.75
2022-09-26T16:01:55.327Z,99292.06
2022-09-26T16:04:25.277Z,99294.44
2022-09-26T16:06:57.765Z,99287.25
2022-09-26T16:09:31.647Z,99291.13
2022-09-26T16:12:01.714Z,99292.38
2022-09-26T16:14:41.572Z,99285.41
2022-09-26T16:17:21.461Z,99287.47
2022-09-26T16:19:51.001Z,99288.25
2022-09-26T16:22:40.405Z,99292.81
2022-09-26T16:25:34.195Z,99277.56
2022-09-26T16:28:41.919Z,99269.72
2022-09-26T16:31:18.223Z,99273.13
2022-09-26T16:33:52.228Z,99271.81
2022-09-26T16:36:26.176Z,99274.66
2022-09-26T16:38:56.765Z,99271.47
2022-09-26T16:41:56.266Z,99273.13
2022-09-26T16:44:28.961Z,99276.56
2022-09-26T16:47:03.087Z,99269.03
2022-09-26T16:49:42.150Z,99260.09
2022-09-26T16:52:21.337Z,99263.69
2022-09-26T16:54:49.801Z,99272.19
2022-09-26T16:57:22.487Z,99264.38
2022-09-26T16:59:51.624Z,99263.00
2022-09-26T17:02:18.842Z,99261.31
2022-09-26T17:04:50.083Z,99259.59
2022-09-26T17:07:17.999Z,99255.56
2022-09-26T17:09:45.874Z,99253.94
2022-09-26T17:12:19.090Z,99246.91
2022-09-26T17:14:51.983Z,99240.13
2022-09-26T17:17:22.955Z,99231.28
2022-09-26T17:19:59.070Z,99237.28
2022-09-26T17:22:28.947Z,99231.22
2022-09-26T17:24:57.023Z,99236.59
2022-09-26T17:27:27.407Z,99225.00
2022-09-26T17:30:00.363Z,99228.09
2022-09-26T17:32:31.590Z,99224.47
2022-09-26T17:35:03.859Z,99215.72
2022-09-26T17:37:32.037Z,99222.88
2022-09-26T17:39:59.898Z,99215.81
2022-09-26T17:42:30.299Z,99213.25
2022-09-26T17:44:58.293Z,99212.28
2022-09-26T17:47:26.803Z,99207.16
2022-09-26T17:49:57.225Z,99212.94
2022-09-26T17:52:30.041Z,99212.06
2022-09-26T17:55:01.281Z,99201.16
2022-09-26T17:57:33.947Z,99197.53
2022-09-26T18:00:10.064Z,99196.09
2022-09-26T18:02:43.541Z,99204.69
2022-09-26T18:05:18.895Z,99201.41
2022-09-26T18:07:51.915Z,99190.78
2022-09-26T18:10:22.625Z,99186.22
2022-09-26T18:12:57.261Z,99190.63
2022-09-26T18:15:26.188Z,99188.88
2022-09-26T18:17:54.283Z,99180.63
2022-09-26T18:20:24.805Z,99177.03
2022-09-26T18:22:54.477Z,99177.03
2022-09-26T18:25:25.025Z,99179.69
2022-09-26T18:27:56.647Z,99181.66
2022-09-26T18:30:25.352Z,99173.13
2022-09-26T18:32:56.413Z,99176.53
2022-09-26T18:35:27.244Z,99161.69
2022-09-26T18:37:56.969Z,99164.34
2022-09-26T18:40:26.618Z,99162.81
2022-09-26T18:42:55.324Z,99163.50
2022-09-26T18:45:28.535Z,99167.69
2022-09-26T18:47:57.003Z,99167.94
2022-09-26T18:50:30.137Z,99163.00
2022-09-26T18:52:59.403Z,99166.41
2022-09-26T18:56:00.204Z,99159.72
2022-09-26T18:58:28.655Z,99163.50
2022-09-26T19:00:59.566Z,99161.78
2022-09-26T19:03:29.882Z,99169.94
2022-09-26T19:06:04.014Z,99159.41
2022-09-26T19:08:37.336Z,99165.59
2022-09-26T19:11:11.081Z,99162.16
2022-09-26T19:13:38.909Z,99149.75
2022-09-26T19:16:07.927Z,99152.63
2022-09-26T19:18:36.113Z,99152.72
2022-09-26T19:21:07.815Z,99152.72
2022-09-26T19:23:37.953Z,99145.88
2022-09-26T19:26:07.156Z,99145.16
2022-09-26T19:28:37.224Z,99146.22
2022-09-26T19:31:05.599Z,99141.59
2022-09-26T19:33:33.858Z,99135.91
2022-09-26T19:36:02.012Z,99133.63
2022-09-26T19:38:29.871Z,99128.88
2022-09-26T19:40:59.352Z,99128.97
2022-09-26T19:43:27.392Z,99122.81
2022-09-26T19:45:56.091Z,99123.75
2022-09-26T19:48:24.785Z,99122.28
2022-09-26T19:50:53.726Z,99117.06
2022-09-26T19:53:23.625Z,99125.78
2022-09-26T19:55:52.367Z,99113.97
2022-09-26T19:58:23.067Z,99103.53
2022-09-26T20:00:53.327Z,99105.47
2022-09-26T20:03:23.479Z,99108.75
2022-09-26T20:05:51.446Z,99093.47
2022-09-26T20:08:22.058Z,99097.69
2022-09-26T20:10:50.194Z,99094.59
2022-09-26T20:13:18.868Z,99089.28
2022-09-26T20:15:48.858Z,99084.13
2022-09-26T20:18:20.655Z,99078.81
2022-09-26T20:20:53.881Z,99082.94
2022-09-26T20:23:24.261Z,99067.88
2022-09-26T20:25:53.845Z,99067.88
2022-09-26T20:28:22.411Z,99067.69
2022-09-26T20:30:56.564Z,99067.88
2022-09-26T20:33:26.844Z,99059.72
2022-09-26T20:36:03.245Z,99064.00
2022-09-26T20:38:35.713Z,99064.09
2022-09-26T20:41:12.951Z,99061.34
2022-09-26T20:43:42.643Z,99048.31
2022-09-26T20:46:12.793Z,99043.88
2022-09-26T20:48:44.085Z,99037.75
2022-09-26T20:51:19.161Z,99037.66
2022-09-26T20:53:47.165Z,99030.66
2022-09-26T20:56:16.879Z,99031.59
2022-09-26T20:58:45.034Z,99033.84
2022-09-26T21:01:15.479Z,99025.03
2022-09-26T21:03:45.215Z,99022.28
2022-09-26T21:06:18.163Z,99020.19
2022-09-26T21:08:46.554Z,99011.28
2022-09-26T21:11:15.426Z,99010.44
2022-09-26T21:13:43.774Z,99005.31
2022-09-26T21:16:14.966Z,99011.66
2022-09-26T21:18:45.310Z,99004.63
2022-09-26T21:21:20.624Z,98997.75
2022-09-26T21:24:18.074Z,98997.75
2022-09-26T21:26:47.556Z,98998.78
2022-09-26T21:29:18.133Z,98994.31
2022-09-26T21:31:51.081Z,98991.25
2022-09-26T21:34:21.512Z,98992.88
2022-09-26T21:36:50.456Z,98989.38
2022-09-26T21:39:19.998Z,98984.25
2022-09-26T21:41:49.943Z,98980.78
2022-09-26T21:44:22.905Z,98977.38
2022-09-26T21:46:52.537Z,98972.41
2022-09-26T21:49:20.653Z,98973.84
2022-09-26T21:51:57.359Z,98970.34
2022-09-26T21:54:29.212Z,98972.31
2022-09-26T21:57:02.513Z,98965.53
2022-09-26T21:59:31.503Z,98960.56
2022-09-26T22:02:00.720Z,98962.97
2022-09-26T22:04:28.920Z,98962.13
2022-09-26T22:06:56.739Z,98955.25
2022-09-26T22:09:24.586Z,98955.09
2022-09-26T22:11:52.706Z,98955.09
2022-09-26T22:14:20.562Z,98950.63
2022-09-26T22:16:48.494Z,98947.38
2022-09-26T22:19:17.765Z,98945.41
2022-09-26T22:21:46.098Z,98938.63
2022-09-26T22:24:14.330Z,98939.56
2022-09-26T22:26:42.172Z,98934.19
2022-09-26T22:29:09.979Z,98932.81
2022-09-26T22:31:38.106Z,98929.41
2022-09-26T22:34:06.050Z,98922.38
2022-09-26T22:36:35.655Z,98920.31
2022-09-26T22:39:03.659Z,98919.28
2022-09-26T22:41:31.604Z,98919.03
2022-09-26T22:43:59.463Z,98913.28
2022-09-26T22:46:27.605Z,98916.88
2022-09-26T22:48:56.424Z,98910.72
2022-09-26T22:51:24.281Z,98908.16
2022-09-26T22:53:58.034Z,98903.78
2022-09-26T22:56:27.151Z,98906.03
2022-09-26T22:58:55.042Z,98892.75
2022-09-26T23:01:24.746Z,98898.22
2022-09-26T23:03:54.050Z,98890.19
2022-09-26T23:06:22.832Z,98890.19
2022-09-26T23:08:51.049Z,98884.88
2022-09-26T23:11:20.839Z,98882.78
2022-09-26T23:13:50.943Z,98875.00
2022-09-26T23:16:27.001Z,98863.38
2022-09-26T23:18:58.385Z,98873.13
2022-09-26T23:21:28.538Z,98870.63
2022-09-26T23:24:02.277Z,98860.72
2022-09-26T23:26:32.727Z,98858.31
2022-09-26T23:29:01.332Z,98853.94
2022-09-26T23:31:30.069Z,98857.53
2022-09-26T23:33:58.585Z,98844.28
2022-09-26T23:36:26.429Z,98835.91
2022-09-26T23:38:55.056Z,98837.59
2022-09-26T23:41:22.819Z,98838.44
2022-09-26T23:43:51.995Z,98837.59
2022-09-26T23:46:20.074Z,98833.84
2022-09-26T23:48:48.088Z,98835.19
2022-09-26T23:51:16.136Z,98825.41
2022-09-26T23:53:43.929Z,98828.00
2022-09-26T23:56:13.614Z,98822.84
2022-09-26T23:58:42.150Z,98819.25
